Big Bear Station Historical Data
Daily Summary for November 3, 2019 Units:  Both    English   Metric
Next Day »
Daily Weekly Monthly Yearly Custom
  High: Low: Average:
Temperature: 67.3 °F /  19.6 °C 30.2 °F /  -1 °C 43.5 °F /  6.4 °C
Dew Point: 26.6 °F /  -3 °C 5.6 °F /  -14.7 °C 17.3 °F /  -8.2 °C
Humidity: 74% 11% 42%
Wind Speed: 5.3mph /  8.5km/h - 0.6mph /  1km/h
Wind Gust: -999mph /  -1607.7km/h - -
Wind- - West
Pressure: 23.59 in /  798.8 hPa 23.51 in /  796 hPa -
Precipitation: 0 in /  0 mm    
Historical Graphs
 
 
Tabular Data for November 3, 2019
Time Temperature Dew Point Pressure Wind Wind Speed Wind Gust Humidity Rainfall Rate (Hourly)
00:08 35.6 °F /  2 °C 20.6 °F /  -6.3 °C 23.59in /  798.8hPa Calm   -999mph /  -1607.7km/h 54% 0.00in /  0mm
00:23 35.2 °F /  1.8 °C 21.1 °F /  -6.1 °C 23.59in /  798.8hPa Calm   -999mph /  -1607.7km/h 56% 0.00in /  0mm
00:38 34.9 °F /  1.6 °C 22 °F /  -5.6 °C 23.59in /  798.8hPa Calm   -999mph /  -1607.7km/h 59% 0.00in /  0mm
00:54 34.7 °F /  1.5 °C 23 °F /  -5 °C 23.59in /  798.8hPa Calm   -999mph /  -1607.7km/h 62% 0.00in /  0mm
01:09 34.3 °F /  1.3 °C 23.4 °F /  -4.8 °C 23.58in /  798.4hPa Calm   -999mph /  -1607.7km/h 64% 0.00in /  0mm
01:24 34 °F /  1.1 °C 23.5 °F /  -4.7 °C 23.59in /  798.8hPa Calm   -999mph /  -1607.7km/h 65% 0.00in /  0mm
01:39 33.8 °F /  1 °C 23.6 °F /  -4.7 °C 23.58in /  798.4hPa Calm   -999mph /  -1607.7km/h 66% 0.00in /  0mm
01:54 33.8 °F /  1 °C 24 °F /  -4.4 °C 23.58in /  798.4hPa Calm   -999mph /  -1607.7km/h 67% 0.00in /  0mm
02:10 33.8 °F /  1 °C 22.5 °F /  -5.3 °C 23.57in /  798.1hPa Calm   -999mph /  -1607.7km/h 63% 0.00in /  0mm
02:25 33.8 °F /  1 °C 22.2 °F /  -5.4 °C 23.57in /  798.1hPa Calm   -999mph /  -1607.7km/h 62% 0.00in /  0mm
02:40 34.5 °F /  1.4 °C 24.7 °F /  -4.1 °C 23.56in /  797.7hPa Calm   -999mph /  -1607.7km/h 67% 0.00in /  0mm
02:56 34.5 °F /  1.4 °C 24.7 °F /  -4.1 °C 23.56in /  797.7hPa Calm   -999mph /  -1607.7km/h 67% 0.00in /  0mm
03:11 34.3 °F /  1.3 °C 24.1 °F /  -4.4 °C 23.56in /  797.7hPa Calm   -999mph /  -1607.7km/h 66% 0.00in /  0mm
03:26 34.2 °F /  1.2 °C 24.4 °F /  -4.2 °C 23.56in /  797.7hPa Calm   -999mph /  -1607.7km/h 67% 0.00in /  0mm
03:41 33.8 °F /  1 °C 25.4 °F /  -3.7 °C 23.56in /  797.7hPa Calm   -999mph /  -1607.7km/h 71% 0.00in /  0mm
03:56 33.8 °F /  1 °C 25.7 °F /  -3.5 °C 23.56in /  797.7hPa Calm   -999mph /  -1607.7km/h 72% 0.00in /  0mm
04:12 33.1 °F /  0.6 °C 25.1 °F /  -3.8 °C 23.56in /  797.7hPa Calm   -999mph /  -1607.7km/h 72% 0.00in /  0mm
04:27 33.1 °F /  0.6 °C 25.1 °F /  -3.8 °C 23.56in /  797.7hPa Calm   -999mph /  -1607.7km/h 72% 0.00in /  0mm
04:42 32.5 °F /  0.3 °C 24.5 °F /  -4.2 °C 23.56in /  797.7hPa Calm   -999mph /  -1607.7km/h 72% 0.00in /  0mm
04:57 32.2 °F /  0.1 °C 24.2 °F /  -4.3 °C 23.56in /  797.7hPa Calm   -999mph /  -1607.7km/h 72% 0.00in /  0mm
05:12 31.8 °F /  -0.1 °C 23.8 °F /  -4.6 °C 23.56in /  797.7hPa Calm   -999mph /  -1607.7km/h 72% 0.00in /  0mm
05:28 31.5 °F /  -0.3 °C 23.5 °F /  -4.7 °C 23.56in /  797.7hPa Calm   -999mph /  -1607.7km/h 72% 0.00in /  0mm
05:43 31.1 °F /  -0.5 °C 23.1 °F /  -4.9 °C 23.56in /  797.7hPa Calm   -999mph /  -1607.7km/h 72% 0.00in /  0mm
05:58 31.1 °F /  -0.5 °C 23.5 °F /  -4.7 °C 23.56in /  797.7hPa Calm   -999mph /  -1607.7km/h 73% 0.00in /  0mm
06:13 30.4 °F /  -0.9 °C 23.1 °F /  -4.9 °C 23.56in /  797.7hPa Calm   -999mph /  -1607.7km/h 74% 0.00in /  0mm
06:29 30.4 °F /  -0.9 °C 23.1 °F /  -4.9 °C 23.57in /  798.1hPa Calm   -999mph /  -1607.7km/h 74% 0.00in /  0mm
06:44 30.4 °F /  -0.9 °C 22.5 °F /  -5.3 °C 23.57in /  798.1hPa Calm   -999mph /  -1607.7km/h 72% 0.00in /  0mm
06:59 30.2 °F /  -1 °C 22.3 °F /  -5.4 °C 23.58in /  798.4hPa Calm   -999mph /  -1607.7km/h 72% 0.00in /  0mm
07:14 31.5 °F /  -0.3 °C 23.5 °F /  -4.7 °C 23.58in /  798.4hPa Calm   -999mph /  -1607.7km/h 72% 0.00in /  0mm
07:29 31.1 °F /  -0.5 °C 23.8 °F /  -4.6 °C 23.58in /  798.4hPa Calm   -999mph /  -1607.7km/h 74% 0.00in /  0mm
07:45 33.6 °F /  0.9 °C 22.3 °F /  -5.4 °C 23.58in /  798.4hPa Calm   -999mph /  -1607.7km/h 63% 0.00in /  0mm
08:00 34.3 °F /  1.3 °C 23 °F /  -5 °C 23.58in /  798.4hPa Calm   -999mph /  -1607.7km/h 63% 0.00in /  0mm
08:15 35.1 °F /  1.7 °C 24.1 °F /  -4.4 °C 23.58in /  798.4hPa Calm   -999mph /  -1607.7km/h 64% 0.00in /  0mm
08:30 38.5 °F /  3.6 °C 26.6 °F /  -3 °C 23.58in /  798.4hPa Calm   -999mph /  -1607.7km/h 62% 0.00in /  0mm
08:45 38.8 °F /  3.8 °C 26.1 °F /  -3.3 °C 23.58in /  798.4hPa Calm   -999mph /  -1607.7km/h 60% 0.00in /  0mm
09:01 40.8 °F /  4.9 °C 14.6 °F /  -9.7 °C 23.58in /  798.4hPa Calm   -999mph /  -1607.7km/h 34% 0.00in /  0mm
09:16 43.5 °F /  6.4 °C 10 °F /  -12.2 °C 23.57in /  798.1hPa Calm   -999mph /  -1607.7km/h 25% 0.00in /  0mm
09:31 46.6 °F /  8.1 °C 12.6 °F /  -10.8 °C 23.57in /  798.1hPa Calm   -999mph /  -1607.7km/h 25% 0.00in /  0mm
09:46 51.8 °F /  11 °C 23.6 °F /  -4.7 °C 23.57in /  798.1hPa NW 2.7mph /  4.3km/h -999mph /  -1607.7km/h 33% 0.00in /  0mm
10:01 56.5 °F /  13.6 °C 14.7 °F /  -9.6 °C 23.57in /  798.1hPa NNW 2.2mph /  3.5km/h -999mph /  -1607.7km/h 19% 0.00in /  0mm
10:17 58.8 °F /  14.9 °C 8 °F /  -13.3 °C 23.56in /  797.7hPa SW 3.2mph /  5.1km/h -999mph /  -1607.7km/h 13% 0.00in /  0mm
10:32 60.4 °F /  15.8 °C 5.6 °F /  -14.7 °C 23.56in /  797.7hPa North 3.2mph /  5.1km/h -999mph /  -1607.7km/h 11% 0.00in /  0mm
10:48 61.7 °F /  16.5 °C 8.5 °F /  -13.1 °C 23.56in /  797.7hPa NNW 2.7mph /  4.3km/h -999mph /  -1607.7km/h 12% 0.00in /  0mm
11:03 62.2 °F /  16.8 °C 7 °F /  -13.9 °C 23.56in /  797.7hPa Calm   -999mph /  -1607.7km/h 11% 0.00in /  0mm
11:18 64 °F /  17.8 °C 8.4 °F /  -13.1 °C 23.54in /  797.1hPa NW 1.1mph /  1.8km/h -999mph /  -1607.7km/h 11% 0.00in /  0mm
11:33 64.2 °F /  17.9 °C 8.5 °F /  -13.1 °C 23.54in /  797.1hPa NW 1.1mph /  1.8km/h -999mph /  -1607.7km/h 11% 0.00in /  0mm
11:49 64.6 °F /  18.1 °C 8.8 °F /  -12.9 °C 23.54in /  797.1hPa ESE 1.1mph /  1.8km/h -999mph /  -1607.7km/h 11% 0.00in /  0mm
12:04 65.1 °F /  18.4 °C 11.2 °F /  -11.6 °C 23.53in /  796.7hPa NNW 3.7mph /  6km/h -999mph /  -1607.7km/h 12% 0.00in /  0mm
12:19 66 °F /  18.9 °C 9.9 °F /  -12.3 °C 23.53in /  796.7hPa Calm   -999mph /  -1607.7km/h 11% 0.00in /  0mm
12:34 65.5 °F /  18.6 °C 9.5 °F /  -12.5 °C 23.52in /  796.4hPa NW 2.2mph /  3.5km/h -999mph /  -1607.7km/h 11% 0.00in /  0mm
12:49 67.3 °F /  19.6 °C 10.9 °F /  -11.7 °C 23.52in /  796.4hPa Calm   -999mph /  -1607.7km/h 11% 0.00in /  0mm
13:05 65.8 °F /  18.8 °C 9.8 °F /  -12.3 °C 23.52in /  796.4hPa West 4.7mph /  7.6km/h -999mph /  -1607.7km/h 11% 0.00in /  0mm
13:20 61.9 °F /  16.6 °C 16.6 °F /  -8.6 °C 23.52in /  796.4hPa WNW 3.7mph /  6km/h -999mph /  -1607.7km/h 17% 0.00in /  0mm
13:35 61 °F /  16.1 °C 15.8 °F /  -9 °C 23.52in /  796.4hPa NW 2.7mph /  4.3km/h -999mph /  -1607.7km/h 17% 0.00in /  0mm
13:50 60.6 °F /  15.9 °C 18.1 °F /  -7.7 °C 23.51in /  796hPa NW 3.7mph /  6km/h -999mph /  -1607.7km/h 19% 0.00in /  0mm
14:06 60.3 °F /  15.7 °C 22.3 °F /  -5.4 °C 23.52in /  796.4hPa NNW 5.3mph /  8.5km/h -999mph /  -1607.7km/h 23% 0.00in /  0mm
14:21 59.5 °F /  15.3 °C 18.4 °F /  -7.6 °C 23.51in /  796hPa WNW 2.7mph /  4.3km/h -999mph /  -1607.7km/h 20% 0.00in /  0mm
14:36 58.5 °F /  14.7 °C 19.8 °F /  -6.8 °C 23.51in /  796hPa Calm   -999mph /  -1607.7km/h 22% 0.00in /  0mm
14:51 57.9 °F /  14.4 °C 15.9 °F /  -8.9 °C 23.51in /  796hPa WSW 1.1mph /  1.8km/h -999mph /  -1607.7km/h 19% 0.00in /  0mm
15:07 57.6 °F /  14.2 °C 21 °F /  -6.1 °C 23.51in /  796hPa NNE 1.1mph /  1.8km/h -999mph /  -1607.7km/h 24% 0.00in /  0mm
15:22 56.8 °F /  13.8 °C 16.1 °F /  -8.8 °C 23.51in /  796hPa NW 2.7mph /  4.3km/h -999mph /  -1607.7km/h 20% 0.00in /  0mm
15:37 56.5 °F /  13.6 °C 15.9 °F /  -8.9 °C 23.51in /  796hPa Calm   -999mph /  -1607.7km/h 20% 0.00in /  0mm
15:53 55.8 °F /  13.2 °C 17.5 °F /  -8.1 °C 23.51in /  796hPa Calm   -999mph /  -1607.7km/h 22% 0.00in /  0mm
16:08 55 °F /  12.8 °C 15.7 °F /  -9.1 °C 23.51in /  796hPa WNW 1.1mph /  1.8km/h -999mph /  -1607.7km/h 21% 0.00in /  0mm
16:23 54 °F /  12.2 °C 14.9 °F /  -9.5 °C 23.51in /  796hPa Calm   -999mph /  -1607.7km/h 21% 0.00in /  0mm
16:38 52.3 °F /  11.3 °C 13.5 °F /  -10.3 °C 23.51in /  796hPa Calm   -999mph /  -1607.7km/h 21% 0.00in /  0mm
16:54 51.1 °F /  10.6 °C 13.5 °F /  -10.3 °C 23.52in /  796.4hPa SSE 1.1mph /  1.8km/h -999mph /  -1607.7km/h 22% 0.00in /  0mm
17:09 49.6 °F /  9.8 °C 14.2 °F /  -9.9 °C 23.52in /  796.4hPa South 1.7mph /  2.7km/h -999mph /  -1607.7km/h 24% 0.00in /  0mm
17:24 48.2 °F /  9 °C 13.1 °F /  -10.5 °C 23.52in /  796.4hPa Calm   -999mph /  -1607.7km/h 24% 0.00in /  0mm
17:39 46.9 °F /  8.3 °C 12.9 °F /  -10.6 °C 23.52in /  796.4hPa Calm   -999mph /  -1607.7km/h 25% 0.00in /  0mm
17:54 45.5 °F /  7.5 °C 13.4 °F /  -10.3 °C 23.53in /  796.7hPa Calm   -999mph /  -1607.7km/h 27% 0.00in /  0mm
18:10 44.2 °F /  6.8 °C 13.1 °F /  -10.5 °C 23.53in /  796.7hPa Calm   -999mph /  -1607.7km/h 28% 0.00in /  0mm
18:25 43.7 °F /  6.5 °C 17.1 °F /  -8.3 °C 23.53in /  796.7hPa Calm   -999mph /  -1607.7km/h 34% 0.00in /  0mm
18:41 42.6 °F /  5.9 °C 15.5 °F /  -9.2 °C 23.53in /  796.7hPa Calm   -999mph /  -1607.7km/h 33% 0.00in /  0mm
18:56 42.1 °F /  5.6 °C 13.6 °F /  -10.2 °C 23.53in /  796.7hPa Calm   -999mph /  -1607.7km/h 31% 0.00in /  0mm
19:11 41 °F /  5 °C 12.6 °F /  -10.8 °C 23.53in /  796.7hPa Calm   -999mph /  -1607.7km/h 31% 0.00in /  0mm
19:26 39.9 °F /  4.4 °C 11.7 °F /  -11.3 °C 23.53in /  796.7hPa Calm   -999mph /  -1607.7km/h 31% 0.00in /  0mm
19:41 39.4 °F /  4.1 °C 11.2 °F /  -11.6 °C 23.53in /  796.7hPa Calm   -999mph /  -1607.7km/h 31% 0.00in /  0mm
19:57 39.2 °F /  4 °C 11.1 °F /  -11.6 °C 23.53in /  796.7hPa Calm   -999mph /  -1607.7km/h 31% 0.00in /  0mm
20:12 38.5 °F /  3.6 °C 11.2 °F /  -11.6 °C 23.54in /  797.1hPa Calm   -999mph /  -1607.7km/h 32% 0.00in /  0mm
20:27 37.9 °F /  3.3 °C 10.6 °F /  -11.9 °C 23.54in /  797.1hPa Calm   -999mph /  -1607.7km/h 32% 0.00in /  0mm
20:42 37.2 °F /  2.9 °C 11.4 °F /  -11.4 °C 23.54in /  797.1hPa Calm   -999mph /  -1607.7km/h 34% 0.00in /  0mm
20:58 36.9 °F /  2.7 °C 10.4 °F /  -12 °C 23.54in /  797.1hPa Calm   -999mph /  -1607.7km/h 33% 0.00in /  0mm
21:13 36.1 °F /  2.3 °C 12.3 °F /  -10.9 °C 23.54in /  797.1hPa Calm   -999mph /  -1607.7km/h 37% 0.00in /  0mm
21:28 36.3 °F /  2.4 °C 12.5 °F /  -10.8 °C 23.54in /  797.1hPa Calm   -999mph /  -1607.7km/h 37% 0.00in /  0mm
21:43 35.6 °F /  2 °C 11.2 °F /  -11.6 °C 23.55in /  797.4hPa Calm   -999mph /  -1607.7km/h 36% 0.00in /  0mm
21:58 34.9 °F /  1.6 °C 10 °F /  -12.2 °C 23.55in /  797.4hPa Calm   -999mph /  -1607.7km/h 35% 0.00in /  0mm
22:14 34.7 °F /  1.5 °C 13.4 °F /  -10.3 °C 23.54in /  797.1hPa Calm   -999mph /  -1607.7km/h 41% 0.00in /  0mm
22:29 34.5 °F /  1.4 °C 13.2 °F /  -10.4 °C 23.54in /  797.1hPa Calm   -999mph /  -1607.7km/h 41% 0.00in /  0mm
22:44 34.3 °F /  1.3 °C 15.1 °F /  -9.4 °C 23.54in /  797.1hPa Calm   -999mph /  -1607.7km/h 45% 0.00in /  0mm
22:59 33.8 °F /  1 °C 16.2 °F /  -8.8 °C 23.54in /  797.1hPa Calm   -999mph /  -1607.7km/h 48% 0.00in /  0mm
23:14 33.4 °F /  0.8 °C 18.1 °F /  -7.7 °C 23.54in /  797.1hPa Calm   -999mph /  -1607.7km/h 53% 0.00in /  0mm
23:30 33.3 °F /  0.7 °C 18.9 °F /  -7.3 °C 23.54in /  797.1hPa Calm   -999mph /  -1607.7km/h 55% 0.00in /  0mm
23:45 32.7 °F /  0.4 °C 19.5 °F /  -6.9 °C 23.54in /  797.1hPa Calm   -999mph /  -1607.7km/h 58% 0.00in /  0mm
Big Bear CA Weather